Pax, West Virginia
Current Conditions -  °F | °C
As of 11:51 AM on Sunday 23 Nov 2014 (Local Time) from KBKW Reporting Station
Clear Clear  
Wind Chill: 50°   Ceiling: Unl
Heat Index: 50°   Visibility: 10mi
Dew Point: 36°   Wind: 10mph
Humidity: 59%   Direction: 140°SE
Pressure: 30.04"   Gusts: NA
Location:  37.91°N, 81.26°W
Report Text: KBKW 231651Z AUTO 14009KT 10SM CLR 10/02 A3004 RMK AO2 SLP174 T01000022
Loading
Personal Weather Stations






























Interactive Weather Map New forecast layout! Learn more

10-Day Weather Forecast

Advertisements
Track Severe Weather on mobile